Time;durP1;ratioP1;P1;durP2;ratioP2;P2;SDS_P1;SDS_P2;PMS_P1;PMS_P2;Temp;Humidity;BMP_temperature;BMP_pressure;BME280_temperature;BME280_humidity;BME280_pressure;Samples;Min_cycle;Max_cycle;Signal;HPM_P1;HPM_P2
2022/09/30 00:00:55;;;;;;;5.18;2.60;;;7.40;99.90;;;;;;5055783;28;20017;-76
2022/09/30 00:03:21;;;;;;;4.88;2.83;;;7.50;99.90;;;;;;5055182;28;20468;-76
2022/09/30 00:05:46;;;;;;;5.53;2.75;;;7.50;99.90;;;;;;5055356;28;20019;-75
2022/09/30 00:08:12;;;;;;;4.57;3.13;;;7.50;99.90;;;;;;5073226;28;20073;-75
2022/09/30 00:10:38;;;;;;;3.58;2.90;;;7.50;99.90;;;;;;5055048;28;20063;-75
2022/09/30 00:13:04;;;;;;;6.25;3.10;;;7.60;99.90;;;;;;5054935;28;20032;-75
2022/09/30 00:15:29;;;;;;;6.65;3.90;;;7.50;99.90;;;;;;5054993;28;20033;-75
2022/09/30 00:17:55;;;;;;;12.25;3.13;;;7.60;99.90;;;;;;5055201;28;20031;-75
2022/09/30 00:20:20;;;;;;;5.15;3.45;;;7.60;99.90;;;;;;5055170;28;20017;-75
2022/09/30 00:22:46;;;;;;;11.57;3.30;;;7.70;99.90;;;;;;5055244;28;20391;-75
2022/09/30 00:25:11;;;;;;;5.93;2.67;;;7.60;99.90;;;;;;5054952;28;20494;-76
2022/09/30 00:27:37;;;;;;;4.38;3.20;;;7.90;99.90;;;;;;5054847;28;20050;-76
2022/09/30 00:30:03;;;;;;;5.15;2.95;;;7.80;99.90;;;;;;5055205;28;20056;-76
2022/09/30 00:32:28;;;;;;;4.90;3.13;;;7.50;99.90;;;;;;5055202;28;20092;-74
2022/09/30 00:34:54;;;;;;;7.88;2.97;;;7.30;99.90;;;;;;5056637;28;20116;-74
2022/09/30 00:37:19;;;;;;;5.15;2.90;;;7.10;99.90;;;;;;5058579;28;20056;-74
2022/09/30 00:39:45;;;;;;;6.75;2.90;;;7.00;99.90;;;;;;5058656;28;20024;-75
2022/09/30 00:42:13;;;;;;;8.73;2.83;;;7.10;99.90;;;;;;5058577;28;20020;-75
2022/09/30 00:45:01;;;;;;;3.95;2.83;;;7.10;99.90;;;;;;5076684;28;20017;-75
2022/09/30 00:47:44;;;;;;;4.88;3.03;;;7.20;99.90;;;;;;5076371;28;20028;-74
2022/09/30 00:50:45;;;;;;;4.57;2.65;;;7.30;99.90;;;;;;5058751;28;20024;-74
2022/09/30 00:53:19;;;;;;;9.73;3.63;;;7.30;99.90;;;;;;4995298;28;20039;-74
2022/09/30 00:55:58;;;;;;;8.45;2.95;;;7.20;99.90;;;;;;4978614;28;20026;-74
2022/09/30 00:58:35;;;;;;;8.60;3.47;;;7.20;99.90;;;;;;4978667;28;20093;-75
2022/09/30 01:01:02;;;;;;;9.43;4.88;;;7.20;99.90;;;;;;5044183;23;20041;-71
2022/09/30 01:03:33;;;;;;;10.38;5.45;;;7.40;99.90;;;;;;5036697;28;20068;-69
2022/09/30 01:05:59;;;;;;;8.80;4.95;;;7.60;99.90;;;;;;5035978;28;20056;-69
2022/09/30 01:08:26;;;;;;;13.15;5.88;;;7.60;99.90;;;;;;5034913;28;20099;-69
2022/09/30 01:10:52;;;;;;;10.52;4.97;;;7.60;99.90;;;;;;5034890;28;20036;-71
2022/09/30 01:13:19;;;;;;;9.57;4.72;;;7.50;99.90;;;;;;5039201;28;20025;-71
2022/09/30 01:16:05;;;;;;;11.57;5.43;;;7.60;99.90;;;;;;5038381;28;20087;-71
2022/09/30 01:18:48;;;;;;;14.98;4.60;;;7.60;99.90;;;;;;5036663;28;20025;-72
2022/09/30 01:21:51;;;;;;;9.13;5.15;;;7.60;99.90;;;;;;5038753;28;20035;-70
2022/09/30 01:24:34;;;;;;;10.68;5.18;;;7.60;99.90;;;;;;5037271;28;20026;-69
2022/09/30 01:27:37;;;;;;;8.98;4.60;;;7.50;99.90;;;;;;5036457;28;20078;-70
2022/09/30 01:30:11;;;;;;;8.88;4.30;;;7.40;99.90;;;;;;5035139;28;20053;-70
2022/09/30 01:33:20;;;;;;;6.57;3.97;;;7.40;99.90;;;;;;5035483;28;20037;-70
2022/09/30 01:35:57;;;;;;;7.57;3.80;;;7.40;99.90;;;;;;5035283;28;20093;-70
2022/09/30 01:38:30;;;;;;;11.52;3.88;;;7.20;99.90;;;;;;5035244;28;20072;-70
2022/09/30 01:41:11;;;;;;;6.13;3.70;;;7.00;99.90;;;;;;5035626;28;20021;-70
2022/09/30 01:43:39;;;;;;;5.30;3.67;;;6.80;99.90;;;;;;5044671;28;20025;-71
2022/09/30 01:46:32;;;;;;;9.77;3.90;;;6.90;99.90;;;;;;5035225;28;20075;-71
2022/09/30 01:49:19;;;;;;;9.98;3.60;;;6.90;99.90;;;;;;5034627;28;20025;-71
2022/09/30 01:52:08;;;;;;;15.07;5.28;;;6.80;99.90;;;;;;5035086;28;20025;-71
2022/09/30 01:54:46;;;;;;;9.43;4.30;;;6.70;99.90;;;;;;5034837;28;20032;-72
2022/09/30 01:57:20;;;;;;;8.88;4.38;;;6.60;99.90;;;;;;5034776;28;20064;-72
2022/09/30 02:00:07;;;;;;;4.80;3.55;;;6.80;99.90;;;;;;5035180;28;20025;-72
2022/09/30 02:02:40;;;;;;;8.00;3.75;;;7.00;99.90;;;;;;5036551;28;20051;-73
2022/09/30 02:05:18;;;;;;;9.82;4.05;;;7.20;99.90;;;;;;5035879;28;20022;-70
2022/09/30 02:07:55;;;;;;;9.40;3.78;;;7.40;99.90;;;;;;5035182;28;20092;-70
2022/09/30 02:10:44;;;;;;;13.77;4.97;;;7.20;99.90;;;;;;5035286;28;20029;-71
2022/09/30 02:13:22;;;;;;;12.38;4.90;;;6.80;99.90;;;;;;5036020;28;20028;-70
2022/09/30 02:15:54;;;;;;;19.60;5.10;;;6.80;99.90;;;;;;5035142;28;20030;-70
2022/09/30 02:18:29;;;;;;;36.63;4.85;;;6.60;99.90;;;;;;5035188;28;20040;-70
2022/09/30 02:21:00;;;;;;;14.20;4.55;;;6.50;99.90;;;;;;5038493;28;20112;-72
2022/09/30 02:23:32;;;;;;;14.50;4.65;;;6.50;99.90;;;;;;5039612;28;20025;-70
2022/09/30 02:26:06;;;;;;;23.45;5.90;;;6.50;99.90;;;;;;5034769;28;20125;-70
2022/09/30 02:28:38;;;;;;;5.80;3.85;;;6.50;99.90;;;;;;5034246;28;20026;-70
2022/09/30 02:31:07;;;;;;;26.50;4.85;;;6.40;99.90;;;;;;5034356;28;20018;-70
2022/09/30 02:33:43;;;;;;;6.40;3.95;;;6.40;99.90;;;;;;5033845;28;20022;-70
2022/09/30 02:36:33;;;;;;;12.60;3.92;;;6.40;99.90;;;;;;5034234;28;20025;-70
2022/09/30 02:39:22;;;;;;;14.98;4.13;;;6.40;99.90;;;;;;5034256;28;20025;-70
2022/09/30 02:41:52;;;;;;;6.43;3.40;;;6.40;99.90;;;;;;5038667;28;20423;-71
2022/09/30 02:44:18;;;;;;;7.20;3.65;;;6.40;99.90;;;;;;5033736;28;20112;-71
2022/09/30 02:46:54;;;;;;;14.75;3.45;;;6.60;99.90;;;;;;5033185;28;20029;-71
2022/09/30 02:49:46;;;;;;;7.18;3.55;;;6.80;99.90;;;;;;5034595;28;20047;-70
2022/09/30 02:52:36;;;;;;;5.20;3.30;;;6.90;99.90;;;;;;5034677;28;20029;-70
2022/09/30 02:55:37;;;;;;;6.10;3.22;;;6.90;99.90;;;;;;5033814;28;20048;-72
2022/09/30 02:58:12;;;;;;;3.92;2.55;;;7.10;99.90;;;;;;5031813;28;20029;-72
2022/09/30 03:00:38;;;;;;;4.35;2.80;;;7.20;99.90;;;;;;5033255;28;20032;-72
2022/09/30 03:03:20;;;;;;;3.90;3.28;;;7.30;99.90;;;;;;5033902;28;20029;-72
2022/09/30 03:05:47;;;;;;;;;;;7.40;99.90;;;;;;5034202;28;20021;-72
2022/09/30 03:08:13;;;;;;;5.13;3.33;;;7.50;99.90;;;;;;5032569;28;19905;-72
2022/09/30 03:10:39;;;;;;;11.93;4.32;;;7.50;99.90;;;;;;5032476;28;20040;-72
2022/09/30 03:13:24;;;;;;;17.42;4.53;;;7.30;99.90;;;;;;5032747;28;20545;-72
2022/09/30 03:16:33;;;;;;;11.98;3.97;;;7.20;99.90;;;;;;5032427;28;20087;-72
2022/09/30 03:19:35;;;;;;;31.75;5.90;;;7.30;99.90;;;;;;4953723;29;20027;-72
2022/09/30 03:22:13;;;;;;;67.10;7.53;;;7.10;99.90;;;;;;4953571;29;20035;-70
2022/09/30 03:24:50;;;;;;;54.28;6.25;;;6.80;99.90;;;;;;4953484;29;20024;-70
2022/09/30 03:27:35;;;;;;;26.98;5.07;;;6.60;99.90;;;;;;4953839;29;20071;-72
2022/09/30 03:30:06;;;;;;;19.38;4.80;;;6.60;99.90;;;;;;4953303;29;20027;-72
2022/09/30 03:32:56;;;;;;;12.60;4.40;;;6.60;99.90;;;;;;4953307;29;20028;-72
2022/09/30 03:35:48;;;;;;;7.78;3.65;;;6.90;99.90;;;;;;4953361;29;20094;-71
2022/09/30 03:38:28;;;;;;;8.27;3.63;;;7.10;99.90;;;;;;4953216;29;20035;-71
2022/09/30 03:41:29;;;;;;;6.35;3.78;;;7.10;99.90;;;;;;4953103;29;20102;-71
2022/09/30 03:44:09;;;;;;;14.77;4.50;;;7.20;99.90;;;;;;4953112;29;20074;-71
2022/09/30 03:46:43;;;;;;;14.95;4.35;;;7.20;99.90;;;;;;4953244;29;20035;-71
2022/09/30 03:49:13;;;;;;;8.38;3.88;;;7.20;99.90;;;;;;4953224;29;20035;-71
2022/09/30 03:51:40;;;;;;;19.20;4.95;;;7.30;99.90;;;;;;4953963;28;20023;-71
2022/09/30 03:54:11;;;;;;;24.05;3.83;;;7.20;99.90;;;;;;5031900;28;20029;-71
2022/09/30 03:56:41;;;;;;;17.23;4.00;;;7.20;99.90;;;;;;5031923;28;20060;-71
2022/09/30 03:59:20;;;;;;;33.17;5.97;;;7.20;99.90;;;;;;5033160;28;20044;-71
2022/09/30 04:01:46;;;;;;;32.45;4.95;;;6.80;99.90;;;;;;5032783;28;20034;-71
2022/09/30 04:04:11;;;;;;;8.60;4.55;;;6.60;99.90;;;;;;5033046;28;20033;-71
2022/09/30 04:06:37;;;;;;;13.90;5.18;;;6.60;99.90;;;;;;5031723;28;20025;-71
2022/09/30 04:09:02;;;;;;;44.10;5.68;;;6.60;99.90;;;;;;5033892;28;20037;-71
2022/09/30 04:11:28;;;;;;;37.22;4.93;;;6.50;99.90;;;;;;5036036;28;20472;-71
2022/09/30 04:13:53;;;;;;;53.42;6.97;;;6.40;99.90;;;;;;5036076;28;20037;-71
2022/09/30 04:16:19;;;;;;;32.45;5.90;;;6.20;99.90;;;;;;5037426;28;20025;-71
2022/09/30 04:18:44;;;;;;;11.57;5.35;;;6.30;99.90;;;;;;5035571;28;20021;-71
2022/09/30 04:21:12;;;;;;;43.00;5.88;;;6.50;99.90;;;;;;5035890;28;20021;-71
2022/09/30 04:23:40;;;;;;;29.48;5.18;;;6.50;99.90;;;;;;5036829;28;20032;-72
2022/09/30 04:26:09;;;;;;;21.75;5.13;;;6.50;99.90;;;;;;5035553;28;20021;-72
2022/09/30 04:28:35;;;;;;;9.65;4.68;;;6.80;99.90;;;;;;5036763;28;20104;-72
2022/09/30 04:31:03;;;;;;;16.67;5.22;;;7.00;99.90;;;;;;5036640;28;20029;-72
2022/09/30 04:33:28;;;;;;;26.00;5.07;;;7.10;99.90;;;;;;5035669;28;20025;-72
2022/09/30 04:35:55;;;;;;;29.45;5.78;;;7.20;99.90;;;;;;5036506;28;20096;-72
2022/09/30 04:38:21;;;;;;;11.48;4.28;;;7.00;99.90;;;;;;5036536;28;20064;-72
2022/09/30 04:40:48;;;;;;;19.67;5.63;;;7.00;99.90;;;;;;5036609;28;20473;-72
2022/09/30 04:43:15;;;;;;;21.65;5.13;;;7.10;99.90;;;;;;5035212;28;20057;-72
2022/09/30 04:45:43;;;;;;;40.95;6.88;;;7.10;99.90;;;;;;5036092;28;20017;-72
2022/09/30 04:48:09;;;;;;;42.60;6.32;;;7.10;99.90;;;;;;5035218;28;20021;-72
2022/09/30 04:50:34;;;;;;;24.75;6.47;;;6.90;99.90;;;;;;5035040;28;20033;-72
2022/09/30 04:53:00;;;;;;;40.80;6.00;;;6.90;99.90;;;;;;5036220;28;20120;-72
2022/09/30 04:55:26;;;;;;;20.75;5.20;;;6.70;99.90;;;;;;5035053;28;20021;-72
2022/09/30 04:57:51;;;;;;;12.15;5.55;;;6.80;99.90;;;;;;5036042;28;20033;-72
2022/09/30 05:00:17;;;;;;;10.30;4.50;;;7.00;99.90;;;;;;5036298;28;20099;-72
2022/09/30 05:02:43;;;;;;;34.67;5.95;;;7.10;99.90;;;;;;5034896;28;20017;-72
2022/09/30 05:05:09;;;;;;;13.52;4.72;;;7.10;99.90;;;;;;5036419;28;20025;-72
2022/09/30 05:07:35;;;;;;;11.85;4.70;;;6.90;99.90;;;;;;5035052;28;20033;-72
2022/09/30 05:10:00;;;;;;;24.27;5.85;;;6.90;99.90;;;;;;5034767;28;20049;-72
2022/09/30 05:12:26;;;;;;;12.85;5.32;;;6.70;99.90;;;;;;5034693;28;20515;-72
2022/09/30 05:14:51;;;;;;;23.85;6.15;;;6.70;99.90;;;;;;5034624;28;20117;-72
2022/09/30 05:17:17;;;;;;;64.63;8.35;;;6.70;99.90;;;;;;5034567;28;20507;-71
2022/09/30 05:19:42;;;;;;;10.95;4.78;;;6.60;99.90;;;;;;5035731;28;20021;-71
2022/09/30 05:22:08;;;;;;;10.90;4.32;;;6.70;99.90;;;;;;5033656;28;20033;-71
2022/09/30 05:24:33;;;;;;;18.73;5.38;;;7.00;99.90;;;;;;5034438;28;20021;-71
2022/09/30 05:27:00;;;;;;;15.30;4.88;;;6.90;99.90;;;;;;5034971;28;20029;-71
2022/09/30 05:29:26;;;;;;;14.57;5.95;;;6.80;99.90;;;;;;5034631;28;20025;-71
2022/09/30 05:31:51;;;;;;;11.35;5.30;;;7.10;99.90;;;;;;5034370;28;20021;-71
2022/09/30 05:34:17;;;;;;;17.48;5.55;;;7.40;99.90;;;;;;5035087;28;20026;-71
2022/09/30 05:36:43;;;;;;;13.35;5.07;;;7.30;99.90;;;;;;5034097;28;20025;-71
2022/09/30 05:39:10;;;;;;;14.82;4.47;;;7.30;99.90;;;;;;5035789;28;20091;-70
2022/09/30 05:41:35;;;;;;;17.80;5.47;;;7.30;99.90;;;;;;5034065;28;20037;-70
2022/09/30 05:44:01;;;;;;;8.65;4.65;;;7.30;99.90;;;;;;5035297;28;20026;-70
2022/09/30 05:46:27;;;;;;;23.13;5.20;;;7.30;99.90;;;;;;5034327;28;20025;-70
2022/09/30 05:48:53;;;;;;;39.22;5.47;;;7.40;99.90;;;;;;5035555;28;20037;-70
2022/09/30 05:51:19;;;;;;;17.70;5.30;;;7.00;99.90;;;;;;5034627;28;20041;-70
2022/09/30 05:53:45;;;;;;;12.20;4.65;;;6.80;99.90;;;;;;5034269;28;20064;-70
2022/09/30 05:56:11;;;;;;;21.08;6.22;;;6.80;99.90;;;;;;5033917;28;20024;-70
2022/09/30 05:58:39;;;;;;;10.60;4.70;;;7.10;99.90;;;;;;5033781;28;20057;-70
2022/09/30 06:01:10;;;;;;;20.98;8.48;;;7.20;99.90;;;;;;5033929;28;20025;-70
2022/09/30 06:03:37;;;;;;;10.82;5.82;;;7.10;99.90;;;;;;5035323;28;20100;-70
2022/09/30 06:06:03;;;;;;;12.50;4.70;;;7.00;99.90;;;;;;5034954;28;20548;-70
2022/09/30 06:08:29;;;;;;;11.05;4.60;;;7.10;99.90;;;;;;5035254;28;20109;-70
2022/09/30 06:10:57;;;;;;;11.18;4.55;;;7.20;99.90;;;;;;5033870;28;20037;-70
2022/09/30 06:13:24;;;;;;;15.32;4.97;;;7.00;99.90;;;;;;5033531;28;20032;-70
2022/09/30 06:15:57;;;;;;;14.65;5.03;;;6.80;99.90;;;;;;5034779;28;20028;-70
2022/09/30 06:18:24;;;;;;;19.63;5.53;;;6.70;99.90;;;;;;5034001;28;20082;-72
2022/09/30 06:20:49;;;;;;;85.95;10.05;;;6.60;99.90;;;;;;5034591;28;20113;-72
2022/09/30 06:23:15;;;;;;;31.23;5.80;;;6.50;99.90;;;;;;5033322;28;20045;-71
2022/09/30 06:25:42;;;;;;;16.05;5.90;;;6.60;99.90;;;;;;5033372;28;20032;-72
2022/09/30 06:28:07;;;;;;;14.55;6.35;;;6.60;99.90;;;;;;5034575;28;20021;-72
2022/09/30 06:30:33;;;;;;;16.13;5.57;;;6.50;99.90;;;;;;5034667;28;20029;-71
2022/09/30 06:33:00;;;;;;;39.47;7.05;;;6.50;99.90;;;;;;5034455;28;20033;-72
2022/09/30 06:35:27;;;;;;;19.23;6.35;;;6.40;99.90;;;;;;5034354;28;20037;-72
2022/09/30 06:37:53;;;;;;;23.63;6.50;;;6.40;99.90;;;;;;5034286;28;20018;-72
2022/09/30 06:40:22;;;;;;;10.02;6.00;;;6.40;99.90;;;;;;5034315;28;20025;-71
2022/09/30 06:42:48;;;;;;;37.95;6.60;;;6.40;99.90;;;;;;5033345;28;20025;-71
2022/09/30 06:45:14;;;;;;;12.10;5.72;;;6.70;99.90;;;;;;5034220;28;20021;-71
2022/09/30 06:47:41;;;;;;;14.30;5.28;;;7.00;99.90;;;;;;5033033;28;20121;-71
2022/09/30 06:50:07;;;;;;;15.18;6.15;;;7.30;99.90;;;;;;5033447;28;20492;-70
2022/09/30 06:52:32;;;;;;;19.33;6.65;;;7.10;99.90;;;;;;5034466;28;20028;-72
2022/09/30 06:54:58;;;;;;;12.63;5.22;;;7.10;99.90;;;;;;5032796;28;20092;-72
2022/09/30 06:57:25;;;;;;;16.00;4.50;;;7.20;99.90;;;;;;5032917;28;20030;-73
2022/09/30 07:02:19;;;;;;;10.75;5.25;;;7.00;99.90;;;;;;5033109;28;20038;-74
2022/09/30 07:04:45;;;;;;;16.60;6.78;;;6.90;99.90;;;;;;5016510;28;20021;-74
2022/09/30 07:07:11;;;;;;;7.47;4.50;;;7.10;99.90;;;;;;5034614;28;20207;-75
2022/09/30 07:09:37;;;;;;;11.05;4.70;;;7.10;99.90;;;;;;5016897;28;20029;-75
2022/09/30 07:12:03;;;;;;;9.05;5.13;;;7.20;99.90;;;;;;5053526;28;20021;-74
2022/09/30 07:14:30;;;;;;;10.30;4.45;;;7.10;99.90;;;;;;5035824;28;20029;-74
2022/09/30 07:16:56;;;;;;;11.45;4.88;;;7.20;99.90;;;;;;5035910;28;20024;-76
2022/09/30 07:19:22;;;;;;;11.07;4.47;;;7.40;99.90;;;;;;5037182;28;20020;-74
2022/09/30 07:21:50;;;;;;;19.15;5.25;;;7.50;99.90;;;;;;5039017;28;20018;-74
2022/09/30 07:24:17;;;;;;;14.70;4.45;;;7.60;99.90;;;;;;5039189;28;20040;-75
2022/09/30 07:26:44;;;;;;;15.13;4.68;;;7.50;99.90;;;;;;5040387;28;20032;-75
2022/09/30 07:29:12;;;;;;;15.18;4.70;;;7.30;99.90;;;;;;5057940;28;20021;-75
2022/09/30 07:31:38;;;;;;;13.77;4.50;;;7.00;99.90;;;;;;5039862;28;20029;-75
2022/09/30 07:34:05;;;;;;;11.85;4.85;;;7.20;99.90;;;;;;5038870;28;20033;-75
2022/09/30 07:36:31;;;;;;;6.88;4.38;;;7.40;99.90;;;;;;5039115;28;20048;-74
2022/09/30 07:38:57;;;;;;;13.02;4.80;;;7.50;99.90;;;;;;5039359;28;20028;-74
2022/09/30 07:41:27;;;;;;;13.43;5.00;;;7.60;99.90;;;;;;5039552;28;20021;-76
2022/09/30 07:43:56;;;;;;;14.38;5.47;;;7.80;99.90;;;;;;5038709;28;20480;-76
2022/09/30 07:46:32;;;;;;;5.90;3.55;;;7.90;99.90;;;;;;5035925;28;20025;-76
2022/09/30 07:49:02;;;;;;;9.63;4.32;;;7.80;99.90;;;;;;5035642;28;20021;-76
2022/09/30 07:51:38;;;;;;;8.25;4.45;;;7.70;99.90;;;;;;5052925;28;20029;-75
2022/09/30 07:54:18;;;;;;;17.42;5.63;;;7.50;99.90;;;;;;5035334;28;20090;-75
2022/09/30 07:56:45;;;;;;;6.38;4.20;;;7.60;99.90;;;;;;5054732;28;20045;-75
2022/09/30 07:59:11;;;;;;;10.63;4.93;;;7.50;99.90;;;;;;5059705;28;20035;-75
2022/09/30 08:01:36;;;;;;;18.92;5.45;;;7.70;99.90;;;;;;5035193;28;20029;-75
2022/09/30 08:04:05;;;;;;;29.23;5.88;;;7.70;99.90;;;;;;5035876;28;20029;-76
2022/09/30 08:06:35;;;;;;;14.45;5.30;;;7.30;99.90;;;;;;5035304;28;20025;-76
2022/09/30 08:09:00;;;;;;;11.57;5.80;;;7.30;99.90;;;;;;5035124;28;20373;-75
2022/09/30 08:11:26;;;;;;;13.80;6.18;;;7.30;99.90;;;;;;5035506;28;20120;-74
2022/09/30 08:13:52;;;;;;;20.08;5.40;;;7.30;99.90;;;;;;5053000;28;20032;-75
2022/09/30 08:16:19;;;;;;;17.80;5.03;;;7.30;99.90;;;;;;5035078;28;20029;-75
2022/09/30 08:18:45;;;;;;;14.88;5.30;;;7.30;99.90;;;;;;5035699;28;20022;-74
2022/09/30 08:21:10;;;;;;;9.57;4.95;;;7.50;99.90;;;;;;5035790;28;20048;-75
2022/09/30 08:23:36;;;;;;;10.43;5.13;;;7.70;99.90;;;;;;5035184;28;20025;-74
2022/09/30 08:26:04;;;;;;;12.90;6.20;;;7.80;99.90;;;;;;5051920;28;20029;-74
2022/09/30 08:28:31;;;;;;;24.23;7.63;;;7.60;99.90;;;;;;5035805;28;20028;-74
2022/09/30 08:31:09;;;;;;;9.63;5.93;;;7.40;99.90;;;;;;5053048;28;20103;-74
2022/09/30 08:33:34;;;;;;;9.85;5.60;;;7.40;99.90;;;;;;5034992;28;20025;-74
2022/09/30 08:36:11;;;;;;;10.85;5.10;;;7.60;99.90;;;;;;5052958;28;20100;-74
2022/09/30 08:38:37;;;;;;;7.95;4.75;;;7.80;99.90;;;;;;5052974;28;20032;-75
2022/09/30 08:41:21;;;;;;;10.02;5.03;;;8.00;99.90;;;;;;5035783;28;20021;-75
2022/09/30 08:43:56;;;;;;;10.70;5.43;;;8.00;99.90;;;;;;5054563;28;20434;-75
2022/09/30 08:46:52;;;;;;;10.10;5.18;;;8.20;99.90;;;;;;5034909;28;20025;-75
2022/09/30 08:49:45;;;;;;;9.98;5.20;;;8.30;99.90;;;;;;5035748;28;20021;-75
2022/09/30 08:52:16;;;;;;;11.50;5.88;;;8.30;99.90;;;;;;5034812;28;20021;-75
2022/09/30 08:54:47;;;;;;;12.38;6.00;;;8.10;99.90;;;;;;5052951;28;20044;-75
2022/09/30 08:57:12;;;;;;;11.43;5.73;;;8.40;99.90;;;;;;5037326;28;20056;-75
2022/09/30 09:00:10;;;;;;;10.23;6.13;;;8.30;99.90;;;;;;5038374;28;20021;-75
2022/09/30 09:02:59;;;;;;;12.55;6.82;;;8.50;99.90;;;;;;4965789;28;20038;-77
2022/09/30 09:05:56;;;;;;;14.15;7.25;;;8.50;99.90;;;;;;4975404;28;20038;-76
2022/09/30 09:08:35;;;;;;;15.25;7.40;;;8.30;99.90;;;;;;4975511;28;20054;-75
2022/09/30 09:11:19;;;;;;;16.58;7.30;;;8.30;99.90;;;;;;4959837;28;20027;-75
2022/09/30 09:14:02;;;;;;;20.67;8.65;;;8.20;99.90;;;;;;4959148;28;20035;-75
2022/09/30 09:16:44;;;;;;;14.68;7.75;;;8.20;99.90;;;;;;4975171;28;20050;-75
2022/09/30 09:19:14;;;;;;;14.38;7.43;;;8.20;99.90;;;;;;4959105;28;20039;-75
2022/09/30 09:21:52;;;;;;;14.25;8.43;;;8.30;99.90;;;;;;4974989;28;20038;-76
2022/09/30 09:24:23;;;;;;;15.00;7.00;;;8.30;99.90;;;;;;4975147;28;20026;-75
2022/09/30 09:26:52;;;;;;;10.93;6.90;;;8.50;99.90;;;;;;4959504;28;20074;-75
2022/09/30 09:29:34;;;;;;;10.15;6.00;;;8.80;99.90;;;;;;4961542;28;20030;-75
2022/09/30 09:32:02;;;;;;;11.68;6.53;;;8.90;99.90;;;;;;4976945;28;20042;-75
2022/09/30 09:34:29;;;;;;;11.93;7.43;;;8.80;99.90;;;;;;4960570;28;20027;-75
2022/09/30 09:37:07;;;;;;;10.57;6.22;;;9.00;99.90;;;;;;4977158;28;20094;-75
2022/09/30 09:40:01;;;;;;;9.18;6.22;;;9.30;99.90;;;;;;5036391;28;20080;-75
2022/09/30 09:42:27;;;;;;;11.65;6.07;;;9.50;99.90;;;;;;5057007;28;20040;-74
2022/09/30 09:45:15;;;;;;;11.07;6.55;;;9.60;99.90;;;;;;5038283;28;20033;-73
2022/09/30 09:47:46;;;;;;;13.20;7.07;;;9.60;99.90;;;;;;5037620;28;20056;-73
2022/09/30 09:50:35;;;;;;;13.38;7.22;;;9.50;99.90;;;;;;5039508;28;20385;-73
2022/09/30 09:53:31;;;;;;;12.93;7.28;;;9.80;99.90;;;;;;5038190;28;20459;-73
2022/09/30 09:55:58;;;;;;;11.88;7.43;;;9.90;99.90;;;;;;5057453;28;20025;-73
2022/09/30 09:58:25;;;;;;;12.63;7.18;;;10.00;99.90;;;;;;5056291;28;20036;-73
2022/09/30 10:03:23;;;;;;;10.30;7.05;;;10.10;99.90;;;;;;5057535;28;20120;-73
2022/09/30 10:06:07;;;;;;;12.95;7.95;;;10.30;99.90;;;;;;5038420;28;20048;-73
2022/09/30 10:08:37;;;;;;;10.55;6.82;;;10.50;99.90;;;;;;5036934;28;20021;-73
2022/09/30 10:11:24;;;;;;;14.90;7.90;;;10.80;99.90;;;;;;5037814;28;20025;-73
2022/09/30 10:13:58;;;;;;;15.48;8.13;;;11.10;99.90;;;;;;5036949;28;20053;-73
2022/09/30 10:16:34;;;;;;;16.80;8.73;;;11.10;99.90;;;;;;5037735;28;20101;-73
2022/09/30 10:19:00;;;;;;;16.52;8.07;;;11.30;99.90;;;;;;5037078;28;20037;-73
2022/09/30 10:21:28;;;;;;;12.35;8.50;;;11.70;99.90;;;;;;5036731;28;20025;-73
2022/09/30 10:23:53;;;;;;;12.85;7.47;;;12.20;99.90;;;;;;5037598;28;20119;-73
2022/09/30 10:26:24;;;;;;;13.35;7.50;;;12.40;99.90;;;;;;5036719;28;20504;-73
2022/09/30 10:28:54;;;;;;;14.85;8.07;;;12.70;99.90;;;;;;5036740;28;20032;-73
2022/09/30 10:31:30;;;;;;;14.93;7.90;;;12.70;99.90;;;;;;5054367;28;20060;-73
2022/09/30 10:34:27;;;;;;;14.38;8.00;;;12.70;99.90;;;;;;5054709;28;20032;-73
2022/09/30 10:36:54;;;;;;;11.60;7.43;;;12.70;99.90;;;;;;5054344;28;20029;-74
2022/09/30 10:39:27;;;;;;;13.82;7.63;;;13.20;99.90;;;;;;5054363;28;20025;-74
2022/09/30 10:42:22;;;;;;;9.85;6.93;;;13.30;99.90;;;;;;5036512;28;20387;-74
2022/09/30 10:44:54;;;;;;;15.30;6.93;;;13.50;99.90;;;;;;4973548;28;20030;-74
2022/09/30 10:47:23;;;;;;;13.45;8.10;;;13.70;99.90;;;;;;4973629;28;20027;-74
2022/09/30 10:49:54;;;;;;;10.10;6.50;;;13.90;99.90;;;;;;4973930;28;20065;-74
2022/09/30 10:52:23;;;;;;;14.40;7.35;;;14.50;99.90;;;;;;4973467;28;20026;-74
2022/09/30 10:54:59;;;;;;;10.70;6.70;;;14.70;99.90;;;;;;4957138;28;20054;-74
2022/09/30 10:57:27;;;;;;;9.75;6.05;;;14.70;99.90;;;;;;4973318;28;20089;-74
2022/09/30 11:00:01;;;;;;;8.75;6.22;;;15.20;99.90;;;;;;4973220;28;20027;-74
2022/09/30 11:03:06;;;;;;;9.40;6.40;;;15.90;99.90;;;;;;4957284;28;20039;-74
2022/09/30 11:05:39;;;;;;;12.45;6.40;;;15.70;99.90;;;;;;4957006;28;20034;-74
2022/09/30 11:08:30;;;;;;;11.57;6.55;;;15.80;99.90;;;;;;4957202;28;20042;-74
2022/09/30 11:11:00;;;;;;;10.20;5.88;;;15.60;99.90;;;;;;4973076;28;20046;-74
2022/09/30 11:13:55;;;;;;;9.27;5.45;;;15.70;99.90;;;;;;4956812;28;20035;-74
2022/09/30 11:16:43;;;;;;;12.38;6.00;;;15.80;99.90;;;;;;4957695;28;20022;-74
2022/09/30 11:19:20;;;;;;;17.42;6.07;;;15.90;99.90;;;;;;4956244;28;20027;-74
2022/09/30 11:21:59;;;;;;;8.52;5.57;;;16.30;99.90;;;;;;5021113;28;20029;-74
2022/09/30 11:24:31;;;;;;;9.20;5.40;;;17.00;99.90;;;;;;5035714;28;20029;-74
2022/09/30 11:27:26;;;;;;;11.05;6.53;;;17.40;99.90;;;;;;5036009;28;20025;-74
2022/09/30 11:30:03;;;;;;;8.65;5.43;;;17.90;99.90;;;;;;5036152;28;20037;-74
2022/09/30 11:33:06;;;;;;;8.13;4.70;;;17.30;99.90;;;;;;5036334;28;20116;-74
2022/09/30 11:35:52;;;;;;;15.05;4.95;;;17.10;99.90;;;;;;5022499;28;20033;-74
2022/09/30 11:38:47;;;;;;;10.00;5.10;;;17.10;99.90;;;;;;5036556;28;20120;-75
2022/09/30 11:41:28;;;;;;;7.32;4.80;;;17.30;99.90;;;;;;5035830;28;20031;-75
2022/09/30 11:44:06;;;;;;;9.02;4.47;;;17.10;99.90;;;;;;5036631;28;20074;-75
2022/09/30 11:47:03;;;;;;;11.77;3.80;;;17.10;99.90;;;;;;5053750;28;20106;-75
2022/09/30 11:49:57;;;;;;;8.75;4.20;;;18.30;99.90;;;;;;5036079;28;20025;-75
2022/09/30 11:52:57;;;;;;;6.63;4.07;;;18.80;99.90;;;;;;5035394;28;20028;-75
2022/09/30 11:55:53;;;;;;;7.28;3.50;;;18.40;99.90;;;;;;5035411;28;20021;-75
2022/09/30 11:58:23;;;;;;;6.38;3.60;;;18.50;99.90;;;;;;5053637;28;20025;-75
2022/09/30 12:00:54;;;;;;;6.97;3.90;;;18.40;99.90;;;;;;5035456;28;20033;-74
2022/09/30 12:03:26;;;;;;;5.38;3.20;;;18.00;99.90;;;;;;5035390;28;20029;-75
2022/09/30 12:05:55;;;;;;;8.20;3.00;;;19.10;99.90;;;;;;5035349;28;20032;-75
2022/09/30 12:08:27;;;;;;;7.93;3.65;;;19.20;99.90;;;;;;5035300;28;20033;-75
2022/09/30 12:10:57;;;;;;;7.95;4.38;;;19.60;99.90;;;;;;5035240;28;20032;-75
2022/09/30 12:13:26;;;;;;;7.55;3.80;;;19.50;99.90;;;;;;5036096;28;20036;-75
2022/09/30 12:15:55;;;;;;;6.05;3.38;;;19.10;99.90;;;;;;5035219;28;20025;-75
2022/09/30 12:18:24;;;;;;;8.07;4.55;;;19.40;99.90;;;;;;5035203;28;20092;-75
2022/09/30 12:20:57;;;;;;;5.57;3.60;;;19.20;99.90;;;;;;5035678;28;20017;-75
2022/09/30 12:23:41;;;;;;;5.95;3.10;;;19.10;99.90;;;;;;5035426;28;20053;-75
2022/09/30 12:26:06;;;;;;;5.15;3.40;;;18.50;99.90;;;;;;5035957;28;20021;-75
2022/09/30 12:32:24;;;;;;;8.05;3.40;;;17.90;99.90;;;;;;4976504;28;20141;-75
2022/09/30 12:35:16;;;;;;;4.95;3.30;;;17.50;99.90;;;;;;4959952;28;20042;-75
2022/09/30 12:37:58;;;;;;;;;;;17.60;99.90;;;;;;4976358;28;20027;-74
2022/09/30 12:40:42;;;;;;;11.20;4.00;;;17.50;99.90;;;;;;4976345;28;19906;-75
2022/09/30 12:43:54;;;;;;;12.68;4.07;;;17.50;99.90;;;;;;4959700;28;20389;-75
2022/09/30 12:46:44;;;;;;;8.15;4.05;;;18.30;99.90;;;;;;4959703;28;20023;-75
2022/09/30 12:49:16;;;;;;;12.13;4.63;;;19.30;99.90;;;;;;4975810;28;20486;-75
2022/09/30 12:51:43;;;;;;;5.80;3.15;;;19.60;99.90;;;;;;4975648;28;20026;-75
2022/09/30 12:54:39;;;;;;;7.85;3.45;;;19.90;99.90;;;;;;4959556;28;20065;-75
2022/09/30 12:57:08;;;;;;;6.68;3.92;;;20.30;99.90;;;;;;4976245;28;20073;-75
2022/09/30 12:59:37;;;;;;;4.38;3.42;;;20.20;99.90;;;;;;4975518;28;20035;-75
2022/09/30 13:02:05;;;;;;;6.57;3.65;;;20.10;99.90;;;;;;5070581;23;20041;-71
2022/09/30 13:04:41;;;;;;;10.68;4.05;;;20.30;99.90;;;;;;5058803;28;20066;-71
2022/09/30 13:07:20;;;;;;;6.43;3.38;;;21.00;99.90;;;;;;5076611;28;20103;-71
2022/09/30 13:10:20;;;;;;;4.07;2.83;;;20.20;99.90;;;;;;5059284;28;20033;-70
2022/09/30 13:12:46;;;;;;;8.13;3.10;;;19.30;99.90;;;;;;5039360;28;20491;-72
2022/09/30 13:15:29;;;;;;;4.65;3.13;;;18.60;99.90;;;;;;5056455;28;20020;-72
2022/09/30 13:18:01;;;;;;;3.70;2.65;;;18.50;99.90;;;;;;5038354;28;20033;-71
2022/09/30 13:20:48;;;;;;;8.68;3.22;;;18.50;99.90;;;;;;5039049;28;20029;-71
2022/09/30 13:23:47;;;;;;;6.72;2.90;;;17.90;99.90;;;;;;5038827;28;20021;-71
2022/09/30 13:26:27;;;;;;;7.28;2.45;;;17.40;99.90;;;;;;5040259;28;20024;-72
2022/09/30 13:29:18;;;;;;;4.97;3.55;;;17.50;99.90;;;;;;5056994;28;20032;-72
2022/09/30 13:31:49;;;;;;;4.27;2.50;;;17.70;99.90;;;;;;5057123;28;20025;-72